sensor_id;sensor_type;location;lat;lon;timestamp;temperature;humidity
65239;SHT30;51827;51.186;6.926;2023-07-20T00:00:29;24.14;55.12
65239;SHT30;51827;51.186;6.926;2023-07-20T00:01:29;24.18;55.10
65239;SHT30;51827;51.186;6.926;2023-07-20T00:02:30;24.17;55.07
65239;SHT30;51827;51.186;6.926;2023-07-20T00:03:30;24.15;55.10
65239;SHT30;51827;51.186;6.926;2023-07-20T00:04:30;24.15;55.09
65239;SHT30;51827;51.186;6.926;2023-07-20T00:05:31;24.14;55.08
65239;SHT30;51827;51.186;6.926;2023-07-20T00:06:31;24.15;55.10
65239;SHT30;51827;51.186;6.926;2023-07-20T00:07:31;24.15;55.11
65239;SHT30;51827;51.186;6.926;2023-07-20T00:08:31;24.15;55.10
65239;SHT30;51827;51.186;6.926;2023-07-20T00:09:32;24.15;55.08
65239;SHT30;51827;51.186;6.926;2023-07-20T00:10:32;24.17;55.10
65239;SHT30;51827;51.186;6.926;2023-07-20T00:11:36;24.17;55.14
65239;SHT30;51827;51.186;6.926;2023-07-20T00:12:37;24.15;55.09
65239;SHT30;51827;51.186;6.926;2023-07-20T00:13:37;24.14;55.10
65239;SHT30;51827;51.186;6.926;2023-07-20T00:14:37;24.15;55.08
65239;SHT30;51827;51.186;6.926;2023-07-20T00:15:38;24.15;55.10
65239;SHT30;51827;51.186;6.926;2023-07-20T00:16:38;24.14;55.12
65239;SHT30;51827;51.186;6.926;2023-07-20T00:17:38;24.14;55.09
65239;SHT30;51827;51.186;6.926;2023-07-20T00:18:38;24.14;55.12
65239;SHT30;51827;51.186;6.926;2023-07-20T00:19:39;24.15;55.09
65239;SHT30;51827;51.186;6.926;2023-07-20T00:20:39;24.15;55.15
65239;SHT30;51827;51.186;6.926;2023-07-20T00:21:40;24.15;55.13
65239;SHT30;51827;51.186;6.926;2023-07-20T00:22:40;24.14;55.14
65239;SHT30;51827;51.186;6.926;2023-07-20T00:23:40;24.14;55.11
65239;SHT30;51827;51.186;6.926;2023-07-20T00:24:40;24.13;55.17
65239;SHT30;51827;51.186;6.926;2023-07-20T00:25:41;24.14;55.10
65239;SHT30;51827;51.186;6.926;2023-07-20T00:26:41;24.14;55.16
65239;SHT30;51827;51.186;6.926;2023-07-20T00:27:41;24.14;55.15
65239;SHT30;51827;51.186;6.926;2023-07-20T00:28:41;24.15;55.09
65239;SHT30;51827;51.186;6.926;2023-07-20T00:29:41;24.14;55.14
65239;SHT30;51827;51.186;6.926;2023-07-20T00:30:42;24.14;55.14
65239;SHT30;51827;51.186;6.926;2023-07-20T00:31:42;24.15;55.18
65239;SHT30;51827;51.186;6.926;2023-07-20T00:32:42;24.15;55.11
65239;SHT30;51827;51.186;6.926;2023-07-20T00:33:43;24.15;55.18
65239;SHT30;51827;51.186;6.926;2023-07-20T00:34:43;24.13;55.15
65239;SHT30;51827;51.186;6.926;2023-07-20T00:35:44;24.14;55.15
65239;SHT30;51827;51.186;6.926;2023-07-20T00:36:44;24.14;55.12
65239;SHT30;51827;51.186;6.926;2023-07-20T00:37:45;24.14;55.14
65239;SHT30;51827;51.186;6.926;2023-07-20T00:38:45;24.13;55.15
65239;SHT30;51827;51.186;6.926;2023-07-20T00:39:45;24.14;55.15
65239;SHT30;51827;51.186;6.926;2023-07-20T00:40:46;24.13;55.17
65239;SHT30;51827;51.186;6.926;2023-07-20T00:41:46;24.15;55.14
65239;SHT30;51827;51.186;6.926;2023-07-20T00:42:46;24.13;55.16
65239;SHT30;51827;51.186;6.926;2023-07-20T00:43:46;24.11;55.16
65239;SHT30;51827;51.186;6.926;2023-07-20T00:44:47;24.13;55.17
65239;SHT30;51827;51.186;6.926;2023-07-20T00:45:47;24.11;55.15
65239;SHT30;51827;51.186;6.926;2023-07-20T00:46:47;24.11;55.15
65239;SHT30;51827;51.186;6.926;2023-07-20T00:47:48;24.11;55.14
65239;SHT30;51827;51.186;6.926;2023-07-20T00:48:48;24.13;55.12
65239;SHT30;51827;51.186;6.926;2023-07-20T00:49:50;24.13;55.14
65239;SHT30;51827;51.186;6.926;2023-07-20T00:50:51;24.13;55.19
65239;SHT30;51827;51.186;6.926;2023-07-20T00:51:51;24.10;55.15
65239;SHT30;51827;51.186;6.926;2023-07-20T00:52:51;24.13;55.20
65239;SHT30;51827;51.186;6.926;2023-07-20T00:53:53;24.13;55.23
65239;SHT30;51827;51.186;6.926;2023-07-20T00:54:53;24.13;55.18
65239;SHT30;51827;51.186;6.926;2023-07-20T00:55:54;24.11;55.18
65239;SHT30;51827;51.186;6.926;2023-07-20T00:56:57;24.13;55.18
65239;SHT30;51827;51.186;6.926;2023-07-20T00:57:59;24.11;55.19
65239;SHT30;51827;51.186;6.926;2023-07-20T00:58:59;24.10;55.18
65239;SHT30;51827;51.186;6.926;2023-07-20T01:00:00;24.13;55.16
65239;SHT30;51827;51.186;6.926;2023-07-20T01:01:00;24.10;55.17
65239;SHT30;51827;51.186;6.926;2023-07-20T01:02:00;24.14;55.19
65239;SHT30;51827;51.186;6.926;2023-07-20T01:03:00;24.13;55.20
65239;SHT30;51827;51.186;6.926;2023-07-20T01:04:03;24.11;55.20
65239;SHT30;51827;51.186;6.926;2023-07-20T01:05:05;24.08;55.17
65239;SHT30;51827;51.186;6.926;2023-07-20T01:06:45;24.11;55.19
65239;SHT30;51827;51.186;6.926;2023-07-20T01:09:19;24.11;55.20
65239;SHT30;51827;51.186;6.926;2023-07-20T01:10:40;24.10;55.16
65239;SHT30;51827;51.186;6.926;2023-07-20T01:11:43;24.13;55.18
65239;SHT30;51827;51.186;6.926;2023-07-20T01:12:49;24.11;55.19
65239;SHT30;51827;51.186;6.926;2023-07-20T01:13:51;24.11;55.18
65239;SHT30;51827;51.186;6.926;2023-07-20T01:14:52;24.10;55.21
65239;SHT30;51827;51.186;6.926;2023-07-20T01:16:04;24.11;55.23
65239;SHT30;51827;51.186;6.926;2023-07-20T01:17:04;24.11;55.21
65239;SHT30;51827;51.186;6.926;2023-07-20T01:18:05;24.07;55.24
65239;SHT30;51827;51.186;6.926;2023-07-20T01:19:05;24.08;55.18
65239;SHT30;51827;51.186;6.926;2023-07-20T01:20:13;24.10;55.24
65239;SHT30;51827;51.186;6.926;2023-07-20T01:21:21;24.07;55.21
65239;SHT30;51827;51.186;6.926;2023-07-20T01:22:51;24.11;55.26
65239;SHT30;51827;51.186;6.926;2023-07-20T01:25:42;24.10;55.21
65239;SHT30;51827;51.186;6.926;2023-07-20T01:27:01;24.08;55.22
65239;SHT30;51827;51.186;6.926;2023-07-20T01:28:30;24.11;55.24
65239;SHT30;51827;51.186;6.926;2023-07-20T01:32:18;24.10;55.24
65239;SHT30;51827;51.186;6.926;2023-07-20T01:33:20;24.07;55.24
65239;SHT30;51827;51.186;6.926;2023-07-20T01:34:21;24.08;55.25
65239;SHT30;51827;51.186;6.926;2023-07-20T01:35:23;24.05;55.24
65239;SHT30;51827;51.186;6.926;2023-07-20T01:36:29;24.08;55.30
65239;SHT30;51827;51.186;6.926;2023-07-20T01:37:30;24.07;55.24
65239;SHT30;51827;51.186;6.926;2023-07-20T01:38:31;24.07;55.24
65239;SHT30;51827;51.186;6.926;2023-07-20T01:39:32;24.07;55.23
65239;SHT30;51827;51.186;6.926;2023-07-20T01:40:32;24.05;55.25
65239;SHT30;51827;51.186;6.926;2023-07-20T01:41:34;24.05;55.25
65239;SHT30;51827;51.186;6.926;2023-07-20T01:42:34;24.05;55.25
65239;SHT30;51827;51.186;6.926;2023-07-20T01:43:34;24.07;55.30
65239;SHT30;51827;51.186;6.926;2023-07-20T01:44:37;24.07;55.31
65239;SHT30;51827;51.186;6.926;2023-07-20T01:45:37;24.05;55.26
65239;SHT30;51827;51.186;6.926;2023-07-20T01:46:37;24.07;55.25
65239;SHT30;51827;51.186;6.926;2023-07-20T01:47:37;24.03;55.30
65239;SHT30;51827;51.186;6.926;2023-07-20T01:48:38;24.05;55.28
65239;SHT30;51827;51.186;6.926;2023-07-20T01:49:38;24.05;55.28
65239;SHT30;51827;51.186;6.926;2023-07-20T01:50:38;24.05;55.28
65239;SHT30;51827;51.186;6.926;2023-07-20T01:51:38;24.07;55.30
65239;SHT30;51827;51.186;6.926;2023-07-20T01:52:39;24.07;55.29
65239;SHT30;51827;51.186;6.926;2023-07-20T01:53:39;24.05;55.27
65239;SHT30;51827;51.186;6.926;2023-07-20T01:54:39;24.05;55.28
65239;SHT30;51827;51.186;6.926;2023-07-20T01:55:39;24.05;55.28
65239;SHT30;51827;51.186;6.926;2023-07-20T01:56:39;24.07;55.25
65239;SHT30;51827;51.186;6.926;2023-07-20T01:57:43;24.05;55.28
65239;SHT30;51827;51.186;6.926;2023-07-20T01:58:43;24.05;55.26
65239;SHT30;51827;51.186;6.926;2023-07-20T01:59:43;24.08;55.26
65239;SHT30;51827;51.186;6.926;2023-07-20T02:00:43;24.07;55.28
65239;SHT30;51827;51.186;6.926;2023-07-20T02:01:43;24.05;55.28
65239;SHT30;51827;51.186;6.926;2023-07-20T02:02:44;24.07;55.26
65239;SHT30;51827;51.186;6.926;2023-07-20T02:03:44;24.05;55.28
65239;SHT30;51827;51.186;6.926;2023-07-20T02:04:44;24.05;55.35
65239;SHT30;51827;51.186;6.926;2023-07-20T02:05:45;24.05;55.27
65239;SHT30;51827;51.186;6.926;2023-07-20T02:06:45;24.05;55.28
65239;SHT30;51827;51.186;6.926;2023-07-20T02:07:45;24.04;55.29
65239;SHT30;51827;51.186;6.926;2023-07-20T02:08:45;24.04;55.29
65239;SHT30;51827;51.186;6.926;2023-07-20T02:09:46;24.05;55.31
65239;SHT30;51827;51.186;6.926;2023-07-20T02:10:47;24.05;55.28
65239;SHT30;51827;51.186;6.926;2023-07-20T02:11:47;24.08;55.28
65239;SHT30;51827;51.186;6.926;2023-07-20T02:12:48;24.05;55.32
65239;SHT30;51827;51.186;6.926;2023-07-20T02:13:48;24.05;55.34
65239;SHT30;51827;51.186;6.926;2023-07-20T02:14:48;24.08;55.30
65239;SHT30;51827;51.186;6.926;2023-07-20T02:15:48;24.05;55.31
65239;SHT30;51827;51.186;6.926;2023-07-20T02:16:49;24.05;55.33
65239;SHT30;51827;51.186;6.926;2023-07-20T02:17:49;24.07;55.33
65239;SHT30;51827;51.186;6.926;2023-07-20T02:18:49;24.05;55.29
65239;SHT30;51827;51.186;6.926;2023-07-20T02:19:53;24.04;55.34
65239;SHT30;51827;51.186;6.926;2023-07-20T02:20:53;24.04;55.33
65239;SHT30;51827;51.186;6.926;2023-07-20T02:21:54;24.04;55.31
65239;SHT30;51827;51.186;6.926;2023-07-20T02:22:54;24.04;55.35
65239;SHT30;51827;51.186;6.926;2023-07-20T02:23:54;24.04;55.29
65239;SHT30;51827;51.186;6.926;2023-07-20T02:24:54;24.05;55.30
65239;SHT30;51827;51.186;6.926;2023-07-20T02:25:55;24.03;55.31
65239;SHT30;51827;51.186;6.926;2023-07-20T02:26:55;24.03;55.30
65239;SHT30;51827;51.186;6.926;2023-07-20T02:27:56;24.03;55.34
65239;SHT30;51827;51.186;6.926;2023-07-20T02:28:56;24.04;55.36
65239;SHT30;51827;51.186;6.926;2023-07-20T02:29:56;24.05;55.34
65239;SHT30;51827;51.186;6.926;2023-07-20T02:30:56;24.05;55.35
65239;SHT30;51827;51.186;6.926;2023-07-20T02:31:57;24.04;55.35
65239;SHT30;51827;51.186;6.926;2023-07-20T02:33:00;24.05;55.31
65239;SHT30;51827;51.186;6.926;2023-07-20T02:34:00;24.04;55.38
65239;SHT30;51827;51.186;6.926;2023-07-20T02:35:00;24.03;55.35
65239;SHT30;51827;51.186;6.926;2023-07-20T02:36:00;24.04;55.35
65239;SHT30;51827;51.186;6.926;2023-07-20T02:37:01;24.03;55.35
65239;SHT30;51827;51.186;6.926;2023-07-20T02:38:01;24.05;55.36
65239;SHT30;51827;51.186;6.926;2023-07-20T02:39:01;24.03;55.36
65239;SHT30;51827;51.186;6.926;2023-07-20T02:40:02;24.04;55.37
65239;SHT30;51827;51.186;6.926;2023-07-20T02:41:02;24.04;55.40
65239;SHT30;51827;51.186;6.926;2023-07-20T02:42:02;24.05;55.36
65239;SHT30;51827;51.186;6.926;2023-07-20T02:43:03;24.01;55.39
65239;SHT30;51827;51.186;6.926;2023-07-20T02:44:03;24.03;55.39
65239;SHT30;51827;51.186;6.926;2023-07-20T02:45:04;24.04;55.37
65239;SHT30;51827;51.186;6.926;2023-07-20T02:46:04;24.03;55.37
65239;SHT30;51827;51.186;6.926;2023-07-20T02:47:04;24.05;55.40
65239;SHT30;51827;51.186;6.926;2023-07-20T02:48:05;24.03;55.40
65239;SHT30;51827;51.186;6.926;2023-07-20T02:49:05;24.01;55.41
65239;SHT30;51827;51.186;6.926;2023-07-20T02:50:07;24.03;55.39
65239;SHT30;51827;51.186;6.926;2023-07-20T02:51:08;24.04;55.39
65239;SHT30;51827;51.186;6.926;2023-07-20T02:52:08;24.03;55.37
65239;SHT30;51827;51.186;6.926;2023-07-20T02:53:08;24.05;55.38
65239;SHT30;51827;51.186;6.926;2023-07-20T02:54:08;24.04;55.41
65239;SHT30;51827;51.186;6.926;2023-07-20T02:55:09;24.03;55.39
65239;SHT30;51827;51.186;6.926;2023-07-20T02:56:09;24.04;55.36
65239;SHT30;51827;51.186;6.926;2023-07-20T02:57:09;24.04;55.43
65239;SHT30;51827;51.186;6.926;2023-07-20T02:58:10;24.04;55.40
65239;SHT30;51827;51.186;6.926;2023-07-20T02:59:10;24.01;55.42
65239;SHT30;51827;51.186;6.926;2023-07-20T03:00:11;24.04;55.43
65239;SHT30;51827;51.186;6.926;2023-07-20T03:01:11;24.01;55.42
65239;SHT30;51827;51.186;6.926;2023-07-20T03:02:12;24.03;55.42
65239;SHT30;51827;51.186;6.926;2023-07-20T03:03:12;24.03;55.40
65239;SHT30;51827;51.186;6.926;2023-07-20T03:04:12;24.03;55.44
65239;SHT30;51827;51.186;6.926;2023-07-20T03:05:13;24.00;55.43
65239;SHT30;51827;51.186;6.926;2023-07-20T03:06:14;24.00;55.41
65239;SHT30;51827;51.186;6.926;2023-07-20T03:07:15;24.00;55.47
65239;SHT30;51827;51.186;6.926;2023-07-20T03:08:15;24.04;55.43
65239;SHT30;51827;51.186;6.926;2023-07-20T03:09:15;24.03;55.45
65239;SHT30;51827;51.186;6.926;2023-07-20T03:10:15;24.01;55.46
65239;SHT30;51827;51.186;6.926;2023-07-20T03:11:16;24.04;55.44
65239;SHT30;51827;51.186;6.926;2023-07-20T03:12:16;24.01;55.45
65239;SHT30;51827;51.186;6.926;2023-07-20T03:13:16;24.04;55.50
65239;SHT30;51827;51.186;6.926;2023-07-20T03:14:16;24.00;55.46
65239;SHT30;51827;51.186;6.926;2023-07-20T03:15:17;24.00;55.44
65239;SHT30;51827;51.186;6.926;2023-07-20T03:16:19;24.04;55.48
65239;SHT30;51827;51.186;6.926;2023-07-20T03:17:19;24.01;55.47
65239;SHT30;51827;51.186;6.926;2023-07-20T03:18:19;24.01;55.49
65239;SHT30;51827;51.186;6.926;2023-07-20T03:19:20;24.01;55.48
65239;SHT30;51827;51.186;6.926;2023-07-20T03:20:20;24.03;55.50
65239;SHT30;51827;51.186;6.926;2023-07-20T03:21:20;24.01;55.47
65239;SHT30;51827;51.186;6.926;2023-07-20T03:22:20;24.01;55.45
65239;SHT30;51827;51.186;6.926;2023-07-20T03:23:21;24.00;55.51
65239;SHT30;51827;51.186;6.926;2023-07-20T03:24:21;24.03;55.49
65239;SHT30;51827;51.186;6.926;2023-07-20T03:25:21;24.03;55.51
65239;SHT30;51827;51.186;6.926;2023-07-20T03:26:21;24.01;55.51
65239;SHT30;51827;51.186;6.926;2023-07-20T03:27:22;23.98;55.47
65239;SHT30;51827;51.186;6.926;2023-07-20T03:28:22;24.00;55.47
65239;SHT30;51827;51.186;6.926;2023-07-20T03:29:22;24.01;55.49
65239;SHT30;51827;51.186;6.926;2023-07-20T03:30:22;24.01;55.50
65239;SHT30;51827;51.186;6.926;2023-07-20T03:31:23;24.00;55.49
65239;SHT30;51827;51.186;6.926;2023-07-20T03:32:23;24.01;55.51
65239;SHT30;51827;51.186;6.926;2023-07-20T03:33:30;24.00;55.47
65239;SHT30;51827;51.186;6.926;2023-07-20T03:34:30;24.01;55.50
65239;SHT30;51827;51.186;6.926;2023-07-20T03:35:30;24.00;55.52
65239;SHT30;51827;51.186;6.926;2023-07-20T03:36:31;23.98;55.47
65239;SHT30;51827;51.186;6.926;2023-07-20T03:37:31;24.01;55.51
65239;SHT30;51827;51.186;6.926;2023-07-20T03:38:31;24.00;55.52
65239;SHT30;51827;51.186;6.926;2023-07-20T03:39:31;24.00;55.52
65239;SHT30;51827;51.186;6.926;2023-07-20T03:40:32;24.00;55.51
65239;SHT30;51827;51.186;6.926;2023-07-20T03:41:32;24.00;55.53
65239;SHT30;51827;51.186;6.926;2023-07-20T03:42:32;24.00;55.54
65239;SHT30;51827;51.186;6.926;2023-07-20T03:43:33;23.98;55.53
65239;SHT30;51827;51.186;6.926;2023-07-20T03:44:33;24.00;55.56
65239;SHT30;51827;51.186;6.926;2023-07-20T03:45:33;23.97;55.54
65239;SHT30;51827;51.186;6.926;2023-07-20T03:46:33;24.00;55.55
65239;SHT30;51827;51.186;6.926;2023-07-20T03:47:34;24.00;55.58
65239;SHT30;51827;51.186;6.926;2023-07-20T03:48:34;24.00;55.55
65239;SHT30;51827;51.186;6.926;2023-07-20T03:49:34;23.98;55.55
65239;SHT30;51827;51.186;6.926;2023-07-20T03:50:34;24.00;55.54
65239;SHT30;51827;51.186;6.926;2023-07-20T03:51:35;24.00;55.60
65239;SHT30;51827;51.186;6.926;2023-07-20T03:52:35;24.00;55.56
65239;SHT30;51827;51.186;6.926;2023-07-20T03:53:35;23.98;55.53
65239;SHT30;51827;51.186;6.926;2023-07-20T03:54:36;23.98;55.56
65239;SHT30;51827;51.186;6.926;2023-07-20T03:55:36;24.01;55.53
65239;SHT30;51827;51.186;6.926;2023-07-20T03:56:36;24.00;55.56
65239;SHT30;51827;51.186;6.926;2023-07-20T03:57:36;23.98;55.56
65239;SHT30;51827;51.186;6.926;2023-07-20T03:58:37;24.00;55.61
65239;SHT30;51827;51.186;6.926;2023-07-20T03:59:37;23.98;55.58
65239;SHT30;51827;51.186;6.926;2023-07-20T04:00:37;24.00;55.56
65239;SHT30;51827;51.186;6.926;2023-07-20T04:01:38;23.98;55.59
65239;SHT30;51827;51.186;6.926;2023-07-20T04:02:38;23.97;55.58
65239;SHT30;51827;51.186;6.926;2023-07-20T04:03:38;23.97;55.56
65239;SHT30;51827;51.186;6.926;2023-07-20T04:04:38;24.00;55.60
65239;SHT30;51827;51.186;6.926;2023-07-20T04:05:39;23.97;55.57
65239;SHT30;51827;51.186;6.926;2023-07-20T04:06:39;23.97;55.59
65239;SHT30;51827;51.186;6.926;2023-07-20T04:07:39;23.97;55.61
65239;SHT30;51827;51.186;6.926;2023-07-20T04:08:39;23.98;55.61
65239;SHT30;51827;51.186;6.926;2023-07-20T04:09:40;23.98;55.60
65239;SHT30;51827;51.186;6.926;2023-07-20T04:10:43;23.97;55.59
65239;SHT30;51827;51.186;6.926;2023-07-20T04:11:44;23.97;55.61
65239;SHT30;51827;51.186;6.926;2023-07-20T04:12:45;23.97;55.58
65239;SHT30;51827;51.186;6.926;2023-07-20T04:13:45;23.98;55.60
65239;SHT30;51827;51.186;6.926;2023-07-20T04:14:46;23.98;55.59
65239;SHT30;51827;51.186;6.926;2023-07-20T04:15:46;23.97;55.62
65239;SHT30;51827;51.186;6.926;2023-07-20T04:16:47;23.97;55.63
65239;SHT30;51827;51.186;6.926;2023-07-20T04:17:47;23.98;55.63
65239;SHT30;51827;51.186;6.926;2023-07-20T04:18:47;23.98;55.63
65239;SHT30;51827;51.186;6.926;2023-07-20T04:19:48;23.97;55.63
65239;SHT30;51827;51.186;6.926;2023-07-20T04:20:48;23.97;55.59
65239;SHT30;51827;51.186;6.926;2023-07-20T04:21:48;23.97;55.62
65239;SHT30;51827;51.186;6.926;2023-07-20T04:22:49;23.98;55.62
65239;SHT30;51827;51.186;6.926;2023-07-20T04:23:49;24.00;55.63
65239;SHT30;51827;51.186;6.926;2023-07-20T04:24:49;23.97;55.68
65239;SHT30;51827;51.186;6.926;2023-07-20T04:25:50;23.97;55.63
65239;SHT30;51827;51.186;6.926;2023-07-20T04:26:50;23.94;55.61
65239;SHT30;51827;51.186;6.926;2023-07-20T04:27:51;23.94;55.64
65239;SHT30;51827;51.186;6.926;2023-07-20T04:28:51;23.96;55.65
65239;SHT30;51827;51.186;6.926;2023-07-20T04:29:51;23.97;55.62
65239;SHT30;51827;51.186;6.926;2023-07-20T04:30:52;23.96;55.65
65239;SHT30;51827;51.186;6.926;2023-07-20T04:31:52;23.96;55.60
65239;SHT30;51827;51.186;6.926;2023-07-20T04:32:52;23.96;55.61
65239;SHT30;51827;51.186;6.926;2023-07-20T04:33:53;23.94;55.68
65239;SHT30;51827;51.186;6.926;2023-07-20T04:34:56;23.97;55.68
65239;SHT30;51827;51.186;6.926;2023-07-20T04:35:56;23.94;55.66
65239;SHT30;51827;51.186;6.926;2023-07-20T04:36:56;23.97;55.69
65239;SHT30;51827;51.186;6.926;2023-07-20T04:37:56;23.97;55.66
65239;SHT30;51827;51.186;6.926;2023-07-20T04:38:56;23.96;55.66
65239;SHT30;51827;51.186;6.926;2023-07-20T04:39:57;23.96;55.72
65239;SHT30;51827;51.186;6.926;2023-07-20T04:40:57;23.96;55.69
65239;SHT30;51827;51.186;6.926;2023-07-20T04:41:58;23.96;55.69
65239;SHT30;51827;51.186;6.926;2023-07-20T04:42:58;23.97;55.72
65239;SHT30;51827;51.186;6.926;2023-07-20T04:43:58;23.94;55.69
65239;SHT30;51827;51.186;6.926;2023-07-20T04:44:58;23.97;55.71
65239;SHT30;51827;51.186;6.926;2023-07-20T04:45:59;23.97;55.63
65239;SHT30;51827;51.186;6.926;2023-07-20T04:46:59;23.97;55.66
65239;SHT30;51827;51.186;6.926;2023-07-20T04:47:59;23.96;55.72
65239;SHT30;51827;51.186;6.926;2023-07-20T04:48:59;23.96;55.71
65239;SHT30;51827;51.186;6.926;2023-07-20T04:50:00;23.96;55.71
65239;SHT30;51827;51.186;6.926;2023-07-20T04:51:00;23.96;55.66
65239;SHT30;51827;51.186;6.926;2023-07-20T04:52:00;23.96;55.69
65239;SHT30;51827;51.186;6.926;2023-07-20T04:53:02;23.94;55.74
65239;SHT30;51827;51.186;6.926;2023-07-20T04:54:02;23.94;55.72
65239;SHT30;51827;51.186;6.926;2023-07-20T04:55:02;23.94;55.72
65239;SHT30;51827;51.186;6.926;2023-07-20T04:56:03;23.94;55.72
65239;SHT30;51827;51.186;6.926;2023-07-20T04:57:09;23.94;55.72
65239;SHT30;51827;51.186;6.926;2023-07-20T04:58:09;23.94;55.75
65239;SHT30;51827;51.186;6.926;2023-07-20T04:59:09;23.96;55.71
65239;SHT30;51827;51.186;6.926;2023-07-20T05:00:10;23.96;55.72
65239;SHT30;51827;51.186;6.926;2023-07-20T05:01:11;23.97;55.71
65239;SHT30;51827;51.186;6.926;2023-07-20T05:02:11;23.94;55.71
65239;SHT30;51827;51.186;6.926;2023-07-20T05:03:11;23.94;55.70
65239;SHT30;51827;51.186;6.926;2023-07-20T05:04:11;23.94;55.69
65239;SHT30;51827;51.186;6.926;2023-07-20T05:05:12;23.96;55.69
65239;SHT30;51827;51.186;6.926;2023-07-20T05:06:13;23.96;55.73
65239;SHT30;51827;51.186;6.926;2023-07-20T05:07:16;23.96;55.74
65239;SHT30;51827;51.186;6.926;2023-07-20T05:08:16;23.94;55.73
65239;SHT30;51827;51.186;6.926;2023-07-20T05:09:16;23.96;55.74
65239;SHT30;51827;51.186;6.926;2023-07-20T05:10:17;23.94;55.73
65239;SHT30;51827;51.186;6.926;2023-07-20T05:11:17;23.94;55.72
65239;SHT30;51827;51.186;6.926;2023-07-20T05:12:18;23.96;55.72
65239;SHT30;51827;51.186;6.926;2023-07-20T05:13:18;23.94;55.70
65239;SHT30;51827;51.186;6.926;2023-07-20T05:14:18;23.94;55.75
65239;SHT30;51827;51.186;6.926;2023-07-20T05:15:18;23.96;55.72
65239;SHT30;51827;51.186;6.926;2023-07-20T05:16:19;23.94;55.74
65239;SHT30;51827;51.186;6.926;2023-07-20T05:17:19;23.97;55.72
65239;SHT30;51827;51.186;6.926;2023-07-20T05:18:19;23.94;55.72
65239;SHT30;51827;51.186;6.926;2023-07-20T05:19:20;23.93;55.74
65239;SHT30;51827;51.186;6.926;2023-07-20T05:20:20;23.94;55.75
65239;SHT30;51827;51.186;6.926;2023-07-20T05:21:20;23.94;55.75
65239;SHT30;51827;51.186;6.926;2023-07-20T05:22:23;23.96;55.76
65239;SHT30;51827;51.186;6.926;2023-07-20T05:23:24;23.96;55.72
65239;SHT30;51827;51.186;6.926;2023-07-20T05:24:24;23.94;55.71
65239;SHT30;51827;51.186;6.926;2023-07-20T05:25:24;23.94;55.77
65239;SHT30;51827;51.186;6.926;2023-07-20T05:26:24;23.96;55.74
65239;SHT30;51827;51.186;6.926;2023-07-20T05:27:25;23.94;55.72
65239;SHT30;51827;51.186;6.926;2023-07-20T05:28:26;23.93;55.73
65239;SHT30;51827;51.186;6.926;2023-07-20T05:29:26;23.93;55.72
65239;SHT30;51827;51.186;6.926;2023-07-20T05:30:26;23.96;55.72
65239;SHT30;51827;51.186;6.926;2023-07-20T05:31:27;23.96;55.75
65239;SHT30;51827;51.186;6.926;2023-07-20T05:32:27;23.93;55.72
65239;SHT30;51827;51.186;6.926;2023-07-20T05:33:28;23.96;55.71
65239;SHT30;51827;51.186;6.926;2023-07-20T05:34:28;23.93;55.72
65239;SHT30;51827;51.186;6.926;2023-07-20T05:35:28;23.96;55.72
65239;SHT30;51827;51.186;6.926;2023-07-20T05:36:28;23.94;55.72
65239;SHT30;51827;51.186;6.926;2023-07-20T05:37:29;23.94;55.71
65239;SHT30;51827;51.186;6.926;2023-07-20T05:38:29;23.94;55.72
65239;SHT30;51827;51.186;6.926;2023-07-20T05:39:29;23.97;55.73
65239;SHT30;51827;51.186;6.926;2023-07-20T05:40:32;23.96;55.75
65239;SHT30;51827;51.186;6.926;2023-07-20T05:41:32;23.96;55.73
65239;SHT30;51827;51.186;6.926;2023-07-20T05:42:32;23.93;55.73
65239;SHT30;51827;51.186;6.926;2023-07-20T05:43:32;23.93;55.70
65239;SHT30;51827;51.186;6.926;2023-07-20T05:44:33;23.96;55.75
65239;SHT30;51827;51.186;6.926;2023-07-20T05:45:33;23.93;55.73
65239;SHT30;51827;51.186;6.926;2023-07-20T05:46:33;23.96;55.71
65239;SHT30;51827;51.186;6.926;2023-07-20T05:47:33;23.92;55.75
65239;SHT30;51827;51.186;6.926;2023-07-20T05:48:34;23.93;55.75
65239;SHT30;51827;51.186;6.926;2023-07-20T05:49:35;23.93;55.72
65239;SHT30;51827;51.186;6.926;2023-07-20T05:50:35;23.96;55.79
65239;SHT30;51827;51.186;6.926;2023-07-20T05:51:35;23.93;55.70
65239;SHT30;51827;51.186;6.926;2023-07-20T05:52:36;23.96;55.74
65239;SHT30;51827;51.186;6.926;2023-07-20T05:53:36;23.96;55.72
65239;SHT30;51827;51.186;6.926;2023-07-20T05:54:36;23.96;55.73
65239;SHT30;51827;51.186;6.926;2023-07-20T05:55:37;23.93;55.76
65239;SHT30;51827;51.186;6.926;2023-07-20T05:56:37;23.93;55.73
65239;SHT30;51827;51.186;6.926;2023-07-20T05:57:37;23.94;55.73
65239;SHT30;51827;51.186;6.926;2023-07-20T05:58:37;23.93;55.71
65239;SHT30;51827;51.186;6.926;2023-07-20T05:59:38;23.93;55.74
65239;SHT30;51827;51.186;6.926;2023-07-20T06:00:38;23.93;55.72
65239;SHT30;51827;51.186;6.926;2023-07-20T06:01:38;23.93;55.72
65239;SHT30;51827;51.186;6.926;2023-07-20T06:02:39;23.93;55.76
65239;SHT30;51827;51.186;6.926;2023-07-20T06:03:39;23.94;55.72
65239;SHT30;51827;51.186;6.926;2023-07-20T06:04:40;23.96;55.70
65239;SHT30;51827;51.186;6.926;2023-07-20T06:05:40;23.93;55.72
65239;SHT30;51827;51.186;6.926;2023-07-20T06:06:40;23.93;55.77
65239;SHT30;51827;51.186;6.926;2023-07-20T06:07:40;23.96;55.72
65239;SHT30;51827;51.186;6.926;2023-07-20T06:08:41;23.94;55.71
65239;SHT30;51827;51.186;6.926;2023-07-20T06:09:41;23.94;55.73
65239;SHT30;51827;51.186;6.926;2023-07-20T06:10:41;23.94;55.68
65239;SHT30;51827;51.186;6.926;2023-07-20T06:11:41;23.94;55.69
65239;SHT30;51827;51.186;6.926;2023-07-20T06:12:42;23.92;55.74
65239;SHT30;51827;51.186;6.926;2023-07-20T06:13:42;23.92;55.69
65239;SHT30;51827;51.186;6.926;2023-07-20T06:14:42;23.94;55.70
65239;SHT30;51827;51.186;6.926;2023-07-20T06:15:43;23.94;55.72
65239;SHT30;51827;51.186;6.926;2023-07-20T06:16:43;23.94;55.72
65239;SHT30;51827;51.186;6.926;2023-07-20T06:17:43;23.92;55.70
65239;SHT30;51827;51.186;6.926;2023-07-20T06:18:43;23.93;55.69
65239;SHT30;51827;51.186;6.926;2023-07-20T06:19:44;23.94;55.71
65239;SHT30;51827;51.186;6.926;2023-07-20T06:20:49;23.93;55.69
65239;SHT30;51827;51.186;6.926;2023-07-20T06:21:49;23.93;55.70
65239;SHT30;51827;51.186;6.926;2023-07-20T06:22:49;23.93;55.68
65239;SHT30;51827;51.186;6.926;2023-07-20T06:23:50;23.93;55.72
65239;SHT30;51827;51.186;6.926;2023-07-20T06:24:50;23.92;55.69
65239;SHT30;51827;51.186;6.926;2023-07-20T06:25:50;23.96;55.71
65239;SHT30;51827;51.186;6.926;2023-07-20T06:26:50;23.94;55.70
65239;SHT30;51827;51.186;6.926;2023-07-20T06:27:51;23.96;55.71
65239;SHT30;51827;51.186;6.926;2023-07-20T06:28:51;23.96;55.70
65239;SHT30;51827;51.186;6.926;2023-07-20T06:29:51;23.93;55.69
65239;SHT30;51827;51.186;6.926;2023-07-20T06:30:51;23.94;55.69